createdAt,value
2019-05-28T00:01:17.501Z,1.67
2019-05-28T00:03:46.105Z,1.83
2019-05-28T00:06:14.980Z,1.90
2019-05-28T00:08:43.532Z,1.70
2019-05-28T00:11:12.044Z,1.63
2019-05-28T00:13:40.574Z,1.47
2019-05-28T00:16:10.054Z,1.70
2019-05-28T00:18:38.813Z,1.20
2019-05-28T00:21:07.311Z,1.60
2019-05-28T00:23:35.840Z,1.60
2019-05-28T00:26:04.412Z,1.40
2019-05-28T00:28:32.938Z,1.70
2019-05-28T00:31:01.715Z,1.37
2019-05-28T00:33:30.244Z,1.40
2019-05-28T00:35:58.745Z,1.07
2019-05-28T00:38:27.274Z,1.33
2019-05-28T00:40:55.772Z,1.20
2019-05-28T00:43:24.305Z,1.30
2019-05-28T00:45:52.811Z,1.77
2019-05-28T00:48:21.313Z,2.00
2019-05-28T00:50:49.854Z,1.80
2019-05-28T00:53:18.362Z,1.20
2019-05-28T00:55:46.955Z,1.50
2019-05-28T00:58:15.932Z,1.27
2019-05-28T01:00:51.814Z,1.50
2019-05-28T01:03:21.118Z,1.40
2019-05-28T01:05:50.500Z,1.63
2019-05-28T01:08:18.997Z,1.83
2019-05-28T01:10:47.526Z,1.60
2019-05-28T01:13:16.038Z,1.50
2019-05-28T01:15:44.710Z,1.43
2019-05-28T01:18:13.158Z,1.47
2019-05-28T01:20:41.697Z,1.57
2019-05-28T01:23:10.186Z,1.73
2019-05-28T01:25:38.739Z,1.43
2019-05-28T01:28:07.230Z,1.60
2019-05-28T01:30:35.751Z,1.87
2019-05-28T01:33:04.325Z,1.37
2019-05-28T01:35:32.851Z,1.90
2019-05-28T01:38:01.356Z,1.73
2019-05-28T01:40:29.878Z,1.63
2019-05-28T01:42:58.479Z,2.20
2019-05-28T01:45:27.010Z,2.93
2019-05-28T01:47:57.596Z,3.00
2019-05-28T01:50:25.668Z,3.33
2019-05-28T01:52:54.165Z,3.00
2019-05-28T01:55:22.704Z,2.80
2019-05-28T01:57:51.226Z,3.33
2019-05-28T02:00:21.018Z,3.57
2019-05-28T02:02:49.604Z,4.50
2019-05-28T02:05:18.274Z,3.80
2019-05-28T02:07:46.773Z,4.27
2019-05-28T02:10:15.842Z,4.73
2019-05-28T02:12:44.349Z,4.70
2019-05-28T02:15:13.256Z,4.97
2019-05-28T02:17:41.768Z,5.10
2019-05-28T02:20:11.237Z,6.27
2019-05-28T02:22:39.747Z,5.90
2019-05-28T02:25:09.211Z,6.93
2019-05-28T02:27:37.793Z,6.13
2019-05-28T02:30:11.191Z,6.23
2019-05-28T02:32:39.702Z,8.03
2019-05-28T02:35:08.679Z,6.70
2019-05-28T02:37:37.188Z,7.00
2019-05-28T02:40:08.718Z,6.30
2019-05-28T02:42:37.312Z,5.70
2019-05-28T02:45:10.274Z,5.83
2019-05-28T02:47:39.020Z,6.30
2019-05-28T02:50:09.180Z,6.97
2019-05-28T02:52:37.756Z,7.17
2019-05-28T02:55:09.626Z,6.70
2019-05-28T02:57:38.298Z,7.33
2019-05-28T03:00:10.237Z,7.40
2019-05-28T03:02:39.196Z,6.30
2019-05-28T03:05:07.796Z,6.77
2019-05-28T03:07:37.842Z,7.03
2019-05-28T03:10:07.309Z,6.50
2019-05-28T03:12:35.816Z,7.63
2019-05-28T03:15:07.572Z,8.20
2019-05-28T03:17:36.542Z,7.83
2019-05-28T03:20:06.902Z,8.00
2019-05-28T03:22:36.403Z,6.57
2019-05-28T03:25:09.129Z,7.42
2019-05-28T03:27:37.825Z,6.70
2019-05-28T03:30:10.525Z,8.00
2019-05-28T03:32:39.132Z,8.20
2019-05-28T03:35:07.863Z,6.50
2019-05-28T03:37:37.061Z,7.90
2019-05-28T03:40:07.185Z,7.83
2019-05-28T03:42:35.717Z,7.10
2019-05-28T03:45:06.158Z,8.10
2019-05-28T03:47:34.752Z,7.77
2019-05-28T03:50:05.392Z,7.63
2019-05-28T03:52:34.029Z,7.10
2019-05-28T03:55:02.537Z,8.00
2019-05-28T03:57:31.070Z,8.77
2019-05-28T03:59:59.570Z,7.97
2019-05-28T04:02:28.187Z,6.90
2019-05-28T04:04:56.696Z,8.10
2019-05-28T04:07:25.232Z,9.30
2019-05-28T04:09:53.761Z,8.73
2019-05-28T04:12:22.292Z,8.40
2019-05-28T04:14:50.791Z,9.73
2019-05-28T04:17:19.321Z,8.70
2019-05-28T04:19:47.829Z,8.93
2019-05-28T04:22:16.423Z,8.23
2019-05-28T04:24:44.921Z,8.30
2019-05-28T04:27:13.525Z,7.20
2019-05-28T04:29:42.025Z,8.17
2019-05-28T04:32:10.549Z,7.77
2019-05-28T04:34:39.057Z,7.50
2019-05-28T04:37:07.583Z,7.30
2019-05-28T04:39:36.095Z,7.33
2019-05-28T04:42:04.868Z,7.30
2019-05-28T04:44:33.373Z,7.20
2019-05-28T04:47:01.901Z,6.67
2019-05-28T04:49:30.412Z,7.40
2019-05-28T04:51:58.935Z,6.90
2019-05-28T04:54:27.440Z,6.50
2019-05-28T04:56:55.979Z,7.07
2019-05-28T04:59:24.479Z,6.80
2019-05-28T05:01:53.000Z,6.83
2019-05-28T05:04:21.581Z,7.17
2019-05-28T05:06:50.110Z,6.80
2019-05-28T05:09:18.748Z,7.53
2019-05-28T05:11:47.404Z,6.43
2019-05-28T05:14:15.981Z,7.10
2019-05-28T05:16:44.508Z,5.90
2019-05-28T05:19:13.010Z,6.03
2019-05-28T05:21:41.543Z,7.07
2019-05-28T05:24:10.511Z,6.80
2019-05-28T05:26:39.020Z,6.33
2019-05-28T05:29:07.558Z,14.80
2019-05-28T05:31:36.073Z,8.83
2019-05-28T05:34:04.667Z,8.40
2019-05-28T05:36:33.168Z,6.60
2019-05-28T05:39:01.697Z,5.73
2019-05-28T05:41:30.372Z,6.20
2019-05-28T05:43:58.908Z,6.40
2019-05-28T05:46:27.410Z,7.67
2019-05-28T05:48:55.967Z,6.70
2019-05-28T05:51:24.457Z,4.87
2019-05-28T05:53:52.980Z,4.00
2019-05-28T05:56:21.483Z,4.30
2019-05-28T05:58:50.009Z,4.60
2019-05-28T06:01:18.528Z,4.43
2019-05-28T06:03:47.037Z,4.57
2019-05-28T06:06:15.566Z,12.17
2019-05-28T06:08:44.080Z,15.50
2019-05-28T06:11:12.587Z,5.63
2019-05-28T06:13:41.116Z,3.63
2019-05-28T06:16:09.617Z,3.30
2019-05-28T06:18:38.144Z,3.27
2019-05-28T06:21:13.457Z,2.67
2019-05-28T06:23:36.837Z,3.03
2019-05-28T06:26:05.408Z,3.07
2019-05-28T06:28:33.946Z,2.60
2019-05-28T06:31:02.453Z,2.90
2019-05-28T06:33:30.980Z,3.10
2019-05-28T06:35:59.546Z,3.17
2019-05-28T06:38:28.085Z,3.33
2019-05-28T06:40:56.593Z,3.50
2019-05-28T06:43:25.131Z,3.90
2019-05-28T06:45:53.639Z,3.53
2019-05-28T06:48:22.163Z,3.17
2019-05-28T06:50:50.743Z,3.23
2019-05-28T06:53:19.268Z,4.90
2019-05-28T06:55:47.800Z,4.33
2019-05-28T06:58:16.298Z,3.83
2019-05-28T07:00:44.839Z,3.87
2019-05-28T07:03:13.335Z,4.30
2019-05-28T07:05:41.865Z,4.30
2019-05-28T07:08:10.376Z,5.17
2019-05-28T07:10:56.256Z,4.67
2019-05-28T07:13:09.041Z,4.67
2019-05-28T07:15:37.575Z,5.33
2019-05-28T07:18:06.147Z,5.47
2019-05-28T07:20:34.691Z,5.67
2019-05-28T07:23:03.215Z,5.43
2019-05-28T07:25:31.745Z,5.70
2019-05-28T07:28:10.225Z,6.03
2019-05-28T07:30:30.416Z,6.00
2019-05-28T07:32:58.927Z,6.20
2019-05-28T07:35:27.496Z,6.60
2019-05-28T07:37:55.990Z,5.73
2019-05-28T07:40:31.486Z,6.00
2019-05-28T07:42:54.660Z,6.93
2019-05-28T07:45:23.193Z,5.92
2019-05-28T07:47:51.699Z,6.37
2019-05-28T07:50:20.223Z,6.03
2019-05-28T07:52:48.727Z,5.13
2019-05-28T07:55:17.322Z,5.40
2019-05-28T07:57:45.828Z,7.93
2019-05-28T08:00:14.729Z,6.60
2019-05-28T08:02:43.234Z,6.83
2019-05-28T08:05:16.848Z,7.10
2019-05-28T08:07:42.000Z,7.60
2019-05-28T08:10:10.773Z,6.35
2019-05-28T08:12:39.837Z,6.93
2019-05-28T08:15:08.542Z,7.20
2019-05-28T08:17:37.138Z,7.40
2019-05-28T08:20:06.042Z,7.40
2019-05-28T08:22:42.262Z,7.27
2019-05-28T08:25:23.697Z,7.03
2019-05-28T08:27:36.994Z,7.93
2019-05-28T08:30:07.759Z,7.67
2019-05-28T08:32:36.267Z,7.33
2019-05-28T08:35:06.574Z,7.65
2019-05-28T08:37:35.119Z,7.80
2019-05-28T08:40:05.585Z,7.60
2019-05-28T08:42:34.097Z,8.97
2019-05-28T08:45:02.710Z,7.00
2019-05-28T08:47:31.208Z,6.77
2019-05-28T08:49:59.733Z,6.90
2019-05-28T08:52:28.321Z,7.03
2019-05-28T08:54:56.866Z,6.77
2019-05-28T08:57:25.429Z,6.07
2019-05-28T08:59:53.940Z,6.20
2019-05-28T09:02:27.961Z,6.20
2019-05-28T09:04:52.696Z,5.43
2019-05-28T09:07:21.221Z,5.30
2019-05-28T09:09:49.739Z,5.13
2019-05-28T09:12:18.264Z,4.83
2019-05-28T09:14:55.890Z,3.83
2019-05-28T09:17:17.007Z,4.03
2019-05-28T09:19:45.670Z,3.97
2019-05-28T09:22:25.285Z,3.87
2019-05-28T09:24:44.370Z,3.83
2019-05-28T09:27:12.917Z,4.90
2019-05-28T09:29:41.419Z,3.67
2019-05-28T09:32:09.938Z,4.60
2019-05-28T09:34:38.437Z,3.20
2019-05-28T09:37:06.961Z,3.40
2019-05-28T09:39:35.471Z,3.30
2019-05-28T09:42:04.007Z,3.83
2019-05-28T09:44:32.505Z,3.50
2019-05-28T09:47:01.031Z,3.43
2019-05-28T09:49:29.537Z,3.00
2019-05-28T09:51:58.068Z,3.20
2019-05-28T09:54:26.572Z,2.40
2019-05-28T09:56:55.098Z,3.17
2019-05-28T09:59:23.667Z,3.03
2019-05-28T10:01:52.374Z,3.10
2019-05-28T10:04:20.878Z,2.60
2019-05-28T10:06:49.475Z,2.70
2019-05-28T10:09:17.989Z,2.40
2019-05-28T10:11:46.529Z,3.03
2019-05-28T10:14:15.037Z,2.50
2019-05-28T10:16:43.593Z,2.40
2019-05-28T10:19:12.107Z,2.10
2019-05-28T10:21:40.635Z,2.13
2019-05-28T10:24:09.137Z,2.40
2019-05-28T10:26:38.460Z,1.87
2019-05-28T10:29:07.029Z,1.80
2019-05-28T10:31:35.565Z,2.60
2019-05-28T10:34:04.150Z,2.23
2019-05-28T10:36:36.646Z,2.20
2019-05-28T10:39:02.818Z,1.60
2019-05-28T10:41:31.353Z,2.10
2019-05-28T10:43:59.868Z,2.17
2019-05-28T10:46:28.391Z,2.03
2019-05-28T10:48:56.901Z,2.20
2019-05-28T10:51:25.470Z,2.40
2019-05-28T10:53:53.997Z,2.30
2019-05-28T10:56:22.531Z,1.80
2019-05-28T10:58:51.017Z,2.77
2019-05-28T11:01:19.550Z,2.53
2019-05-28T11:03:48.139Z,2.93
2019-05-28T11:06:16.634Z,2.10
2019-05-28T11:08:45.160Z,2.73
2019-05-28T11:11:13.661Z,2.00
2019-05-28T11:13:52.448Z,1.93
2019-05-28T11:16:12.362Z,1.80
2019-05-28T11:18:40.875Z,2.73
2019-05-28T11:21:10.149Z,2.27
2019-05-28T11:23:38.874Z,1.53
2019-05-28T11:26:07.374Z,1.90
2019-05-28T11:28:35.897Z,2.33
2019-05-28T11:31:04.461Z,1.63
2019-05-28T11:33:33.001Z,1.70
2019-05-28T11:36:01.503Z,2.10
2019-05-28T11:38:30.035Z,2.27
2019-05-28T11:40:58.538Z,1.50
2019-05-28T11:43:27.074Z,1.63
2019-05-28T11:45:55.941Z,2.50
2019-05-28T11:48:24.478Z,1.60
2019-05-28T11:50:52.991Z,2.00
2019-05-28T11:53:21.523Z,1.83
2019-05-28T11:55:51.181Z,1.73
2019-05-28T11:58:19.731Z,1.37
2019-05-28T12:00:49.204Z,1.83
2019-05-28T12:03:17.810Z,1.47
2019-05-28T12:05:46.305Z,1.53
2019-05-28T12:08:14.836Z,1.40
2019-05-28T12:10:43.354Z,1.70
2019-05-28T12:13:12.149Z,1.37
2019-05-28T12:15:40.719Z,1.80
2019-05-28T12:18:09.278Z,1.53
2019-05-28T12:20:37.914Z,1.57
2019-05-28T12:23:11.486Z,1.83
2019-05-28T12:25:36.593Z,1.73
2019-05-28T12:28:05.108Z,1.40
2019-05-28T12:30:35.338Z,1.47
2019-05-28T12:33:04.273Z,1.90
2019-05-28T12:35:32.805Z,1.20
2019-05-28T12:38:01.305Z,1.70
2019-05-28T12:40:46.179Z,1.93
2019-05-28T12:42:59.995Z,1.83
2019-05-28T12:45:35.405Z,1.33
2019-05-28T12:48:10.976Z,1.60
2019-05-28T12:50:28.854Z,1.50
2019-05-28T12:52:57.345Z,1.30
2019-05-28T12:55:26.648Z,1.53
2019-05-28T12:57:55.295Z,1.30
2019-05-28T13:00:24.240Z,1.70
2019-05-28T13:02:52.798Z,1.90
2019-05-28T13:05:23.781Z,1.57
2019-05-28T13:08:07.327Z,1.33
2019-05-28T13:10:22.532Z,1.45
2019-05-28T13:12:51.414Z,1.17
2019-05-28T13:15:20.383Z,1.50
2019-05-28T13:17:48.875Z,1.27
2019-05-28T13:20:18.569Z,1.90
2019-05-28T13:22:47.533Z,1.13
2019-05-28T13:25:18.353Z,1.33
2019-05-28T13:27:46.849Z,1.40
2019-05-28T13:30:16.141Z,1.10
2019-05-28T13:32:45.110Z,1.30
2019-05-28T13:35:14.558Z,1.67
2019-05-28T13:37:43.218Z,2.07
2019-05-28T13:40:14.041Z,2.00
2019-05-28T13:42:42.590Z,1.37
2019-05-28T13:45:11.794Z,1.27
2019-05-28T13:47:40.351Z,1.27
2019-05-28T13:50:09.469Z,1.60
2019-05-28T13:52:37.985Z,1.43
2019-05-28T13:55:10.196Z,1.43
2019-05-28T13:57:39.622Z,1.10
2019-05-28T14:00:10.465Z,1.37
2019-05-28T14:02:39.066Z,1.50
2019-05-28T14:05:07.690Z,1.10
2019-05-28T14:07:37.493Z,1.40
2019-05-28T14:10:07.028Z,1.27
2019-05-28T14:12:35.616Z,2.00
2019-05-28T14:15:08.092Z,1.30
2019-05-28T14:17:36.714Z,1.20
2019-05-28T14:20:09.698Z,1.43
2019-05-28T14:22:38.473Z,1.27
2019-05-28T14:25:08.409Z,1.13
2019-05-28T14:27:36.943Z,1.33
2019-05-28T14:30:11.029Z,1.70
2019-05-28T14:32:39.621Z,1.50
2019-05-28T14:35:08.569Z,1.53
2019-05-28T14:37:37.097Z,1.23
2019-05-28T14:40:06.808Z,1.03
2019-05-28T14:42:35.329Z,1.30
2019-05-28T14:45:10.337Z,1.70
2019-05-28T14:47:38.871Z,1.43
2019-05-28T14:50:08.208Z,1.27
2019-05-28T14:52:36.802Z,1.10
2019-05-28T14:55:07.125Z,1.00
2019-05-28T14:57:35.689Z,1.60
2019-05-28T15:00:07.613Z,1.10
2019-05-28T15:02:36.228Z,0.83
2019-05-28T15:05:06.860Z,1.15
2019-05-28T15:07:35.391Z,1.20
2019-05-28T15:10:05.826Z,1.00
2019-05-28T15:12:34.349Z,1.20
2019-05-28T15:15:04.398Z,1.30
2019-05-28T15:17:32.925Z,1.10
2019-05-28T15:20:01.428Z,1.50
2019-05-28T15:22:29.957Z,1.10
2019-05-28T15:24:58.461Z,1.20
2019-05-28T15:27:26.989Z,1.00
2019-05-28T15:29:55.516Z,1.27
2019-05-28T15:32:24.037Z,1.53
2019-05-28T15:34:52.538Z,1.20
2019-05-28T15:37:21.091Z,1.37
2019-05-28T15:39:49.583Z,1.20
2019-05-28T15:42:20.509Z,1.43
2019-05-28T15:44:48.290Z,1.40
2019-05-28T15:47:16.822Z,1.20
2019-05-28T15:49:45.323Z,1.30
2019-05-28T15:52:13.862Z,1.60
2019-05-28T15:54:42.453Z,1.30
2019-05-28T15:57:10.981Z,1.50
2019-05-28T15:59:39.475Z,1.43
2019-05-28T16:02:08.019Z,1.27
2019-05-28T16:04:36.515Z,1.83
2019-05-28T16:07:05.062Z,1.40
2019-05-28T16:09:33.639Z,1.60
2019-05-28T16:12:02.163Z,1.27
2019-05-28T16:14:30.664Z,1.43
2019-05-28T16:16:59.192Z,1.73
2019-05-28T16:19:27.758Z,1.30
2019-05-28T16:21:56.285Z,1.33
2019-05-28T16:24:24.796Z,1.43
2019-05-28T16:26:53.416Z,1.20
2019-05-28T16:29:21.848Z,1.57
2019-05-28T16:31:50.443Z,1.30
2019-05-28T16:34:18.945Z,1.00
2019-05-28T16:36:47.481Z,1.10
2019-05-28T16:39:16.055Z,1.87
2019-05-28T16:41:44.596Z,2.33
2019-05-28T16:44:13.082Z,1.83
2019-05-28T16:46:41.584Z,1.20
2019-05-28T16:49:10.119Z,1.20
2019-05-28T16:51:38.643Z,1.50
2019-05-28T16:54:18.846Z,1.27
2019-05-28T16:56:37.300Z,1.50
2019-05-28T16:59:06.513Z,1.32
2019-05-28T17:01:35.002Z,1.20
2019-05-28T17:04:03.542Z,1.60
2019-05-28T17:06:32.051Z,1.13
2019-05-28T17:09:00.576Z,1.33
2019-05-28T17:11:29.303Z,1.50
2019-05-28T17:13:57.959Z,1.07
2019-05-28T17:16:26.498Z,1.07
2019-05-28T17:18:55.033Z,1.00
2019-05-28T17:21:23.569Z,0.90
2019-05-28T17:23:52.065Z,1.27
2019-05-28T17:26:20.570Z,1.00
2019-05-28T17:28:49.096Z,1.43
2019-05-28T17:31:17.597Z,0.90
2019-05-28T17:33:46.126Z,1.37
2019-05-28T17:36:14.638Z,1.37
2019-05-28T17:38:43.165Z,0.83
2019-05-28T17:41:11.676Z,0.70
2019-05-28T17:43:40.271Z,1.20
2019-05-28T17:46:08.779Z,1.07
2019-05-28T17:48:37.307Z,1.00
2019-05-28T17:51:05.809Z,1.03
2019-05-28T17:53:34.328Z,1.33
2019-05-28T17:56:02.869Z,1.03
2019-05-28T17:58:31.377Z,1.07
2019-05-28T18:00:59.884Z,0.80
2019-05-28T18:03:28.406Z,1.00
2019-05-28T18:05:56.915Z,0.70
2019-05-28T18:08:25.438Z,1.00
2019-05-28T18:11:03.697Z,0.60
2019-05-28T18:13:24.121Z,1.13
2019-05-28T18:15:52.623Z,1.03
2019-05-28T18:18:21.145Z,1.47
2019-05-28T18:20:49.656Z,1.03
2019-05-28T18:23:18.183Z,0.80
2019-05-28T18:25:46.751Z,0.93
2019-05-28T18:28:15.284Z,0.80
2019-05-28T18:30:43.786Z,0.77
2019-05-28T18:33:12.301Z,1.07
2019-05-28T18:35:40.820Z,1.00
2019-05-28T18:38:09.343Z,0.70
2019-05-28T18:40:37.879Z,1.03
2019-05-28T18:43:06.472Z,0.90
2019-05-28T18:45:35.003Z,1.23
2019-05-28T18:48:03.715Z,1.07
2019-05-28T18:50:32.186Z,1.00
2019-05-28T18:53:00.722Z,1.33
2019-05-28T18:55:29.239Z,0.70
2019-05-28T18:57:57.795Z,0.97
2019-05-28T19:00:26.428Z,1.00
2019-05-28T19:02:54.959Z,0.87
2019-05-28T19:05:23.461Z,0.87
2019-05-28T19:07:52.013Z,0.90
2019-05-28T19:10:20.591Z,0.70
2019-05-28T19:12:49.109Z,0.80
2019-05-28T19:15:17.790Z,1.00
2019-05-28T19:17:46.308Z,1.00
2019-05-28T19:20:15.082Z,0.90
2019-05-28T19:22:43.585Z,1.00
2019-05-28T19:25:12.477Z,0.97
2019-05-28T19:27:41.050Z,1.03
2019-05-28T19:30:10.413Z,1.00
2019-05-28T19:32:39.134Z,0.90
2019-05-28T19:35:08.199Z,1.00
2019-05-28T19:37:37.087Z,1.03
2019-05-28T19:40:07.178Z,0.80
2019-05-28T19:42:35.705Z,0.80
2019-05-28T19:45:09.204Z,1.00
2019-05-28T19:47:37.665Z,1.03
2019-05-28T19:50:07.320Z,1.03
2019-05-28T19:52:35.711Z,1.00
2019-05-28T19:55:06.456Z,0.90
2019-05-28T19:57:34.986Z,1.20
2019-05-28T20:00:05.208Z,1.00
2019-05-28T20:02:33.688Z,0.80
2019-05-28T20:05:02.177Z,0.90
2019-05-28T20:07:30.714Z,0.80
2019-05-28T20:09:59.202Z,1.27
2019-05-28T20:12:27.661Z,1.00
2019-05-28T20:14:56.157Z,1.00
2019-05-28T20:17:24.630Z,1.00
2019-05-28T20:19:54.569Z,0.97
2019-05-28T20:22:23.177Z,1.20
2019-05-28T20:24:52.957Z,1.10
2019-05-28T20:27:21.796Z,1.20
2019-05-28T20:29:50.285Z,1.20
2019-05-28T20:32:18.853Z,1.27
2019-05-28T20:34:47.358Z,1.13
2019-05-28T20:37:15.829Z,1.20
2019-05-28T20:39:44.449Z,1.33
2019-05-28T20:42:26.245Z,1.40
2019-05-28T20:44:43.647Z,1.10
2019-05-28T20:47:12.203Z,1.60
2019-05-28T20:49:40.955Z,1.10
2019-05-28T20:52:09.610Z,1.10
2019-05-28T20:54:38.479Z,1.90
2019-05-28T20:57:06.958Z,1.60
2019-05-28T20:59:35.519Z,1.30
2019-05-28T21:02:03.991Z,1.50
2019-05-28T21:04:32.483Z,1.43
2019-05-28T21:07:01.192Z,1.40
2019-05-28T21:09:30.116Z,1.40
2019-05-28T21:11:58.811Z,1.57
2019-05-28T21:14:29.130Z,1.30
2019-05-28T21:16:57.753Z,1.30
2019-05-28T21:19:26.369Z,1.50
2019-05-28T21:21:55.727Z,1.40
2019-05-28T21:24:24.370Z,0.97
2019-05-28T21:26:54.269Z,1.20
2019-05-28T21:29:22.830Z,0.93
2019-05-28T21:31:52.403Z,1.00
2019-05-28T21:34:20.885Z,1.30
2019-05-28T21:36:49.372Z,1.50
2019-05-28T21:39:18.115Z,1.17
2019-05-28T21:41:46.598Z,1.70
2019-05-28T21:44:15.071Z,1.20
2019-05-28T21:46:43.575Z,1.40
2019-05-28T21:49:12.949Z,1.10
2019-05-28T21:51:41.464Z,1.53
2019-05-28T21:54:09.928Z,1.10
2019-05-28T21:56:38.421Z,1.30
2019-05-28T21:59:06.882Z,1.40
2019-05-28T22:01:37.421Z,1.00
2019-05-28T22:04:05.947Z,1.17
2019-05-28T22:06:34.442Z,1.10
2019-05-28T22:09:03.902Z,1.07
2019-05-28T22:11:32.365Z,1.50
2019-05-28T22:14:00.829Z,1.30
2019-05-28T22:16:29.321Z,1.20
2019-05-28T22:18:58.253Z,1.00
2019-05-28T22:21:26.788Z,1.40
2019-05-28T22:23:56.255Z,1.30
2019-05-28T22:26:24.842Z,1.40
2019-05-28T22:28:53.301Z,1.20
2019-05-28T22:31:21.795Z,1.10
2019-05-28T22:33:50.275Z,1.40
2019-05-28T22:36:18.750Z,1.15
2019-05-28T22:38:48.854Z,1.33
2019-05-28T22:41:17.355Z,1.23
2019-05-28T22:43:45.817Z,1.50
2019-05-28T22:46:14.315Z,1.30
2019-05-28T22:48:42.781Z,1.50
2019-05-28T22:51:11.247Z,1.23
2019-05-28T22:53:40.402Z,1.40
2019-05-28T22:56:09.031Z,1.33
2019-05-28T22:58:37.525Z,1.83
2019-05-28T23:01:06.728Z,1.60
2019-05-28T23:03:35.290Z,1.50
2019-05-28T23:06:03.769Z,1.30
2019-05-28T23:08:32.253Z,1.47
2019-05-28T23:11:03.186Z,1.53
2019-05-28T23:13:44.083Z,1.00
2019-05-28T23:16:02.540Z,1.27
2019-05-28T23:18:31.261Z,1.10
2019-05-28T23:21:00.634Z,1.20
2019-05-28T23:23:29.110Z,1.80
2019-05-28T23:25:57.572Z,1.40
2019-05-28T23:28:26.076Z,1.60
2019-05-28T23:30:54.657Z,1.23
2019-05-28T23:33:23.095Z,1.30
2019-05-28T23:35:51.563Z,1.07
2019-05-28T23:38:20.089Z,1.10
2019-05-28T23:40:48.556Z,1.37
2019-05-28T23:43:17.064Z,1.30
2019-05-28T23:45:45.514Z,1.40
2019-05-28T23:48:18.046Z,1.50
2019-05-28T23:50:44.239Z,1.47
2019-05-28T23:53:13.752Z,1.30
2019-05-28T23:55:42.389Z,1.53
2019-05-28T23:58:11.931Z,1.73
